sensor_id;sensor_type;location;lat;lon;timestamp;pressure;altitude;pressure_sealevel;temperature;humidity
9738;BME280;4908;47.446;13.900;2024-03-29T00:00:03;91977.00;;;2.57;100.00
9738;BME280;4908;47.446;13.900;2024-03-29T00:02:29;91970.78;;;2.46;100.00
9738;BME280;4908;47.446;13.900;2024-03-29T00:04:55;91969.13;;;2.38;100.00
9738;BME280;4908;47.446;13.900;2024-03-29T00:07:21;91959.19;;;2.32;100.00
9738;BME280;4908;47.446;13.900;2024-03-29T00:09:47;91959.84;;;2.25;100.00
9738;BME280;4908;47.446;13.900;2024-03-29T00:12:13;91972.19;;;2.21;100.00
9738;BME280;4908;47.446;13.900;2024-03-29T00:14:38;91981.94;;;2.17;100.00
9738;BME280;4908;47.446;13.900;2024-03-29T00:17:06;91973.84;;;2.10;100.00
9738;BME280;4908;47.446;13.900;2024-03-29T00:19:32;91985.97;;;2.11;100.00
9738;BME280;4908;47.446;13.900;2024-03-29T00:21:58;91980.88;;;2.22;100.00
9738;BME280;4908;47.446;13.900;2024-03-29T00:24:24;91983.94;;;2.24;100.00
9738;BME280;4908;47.446;13.900;2024-03-29T00:26:50;91984.28;;;2.22;100.00
9738;BME280;4908;47.446;13.900;2024-03-29T00:29:16;91993.53;;;2.13;100.00
9738;BME280;4908;47.446;13.900;2024-03-29T00:31:42;91982.75;;;2.02;100.00
9738;BME280;4908;47.446;13.900;2024-03-29T00:34:09;91986.22;;;1.87;100.00
9738;BME280;4908;47.446;13.900;2024-03-29T00:36:35;91985.25;;;1.76;100.00
9738;BME280;4908;47.446;13.900;2024-03-29T00:39:01;91992.56;;;1.83;100.00
9738;BME280;4908;47.446;13.900;2024-03-29T00:41:27;91995.97;;;1.67;100.00
9738;BME280;4908;47.446;13.900;2024-03-29T00:43:53;91993.97;;;1.61;100.00
9738;BME280;4908;47.446;13.900;2024-03-29T00:46:19;91999.25;;;1.61;100.00
9738;BME280;4908;47.446;13.900;2024-03-29T00:48:45;92003.78;;;1.45;100.00
9738;BME280;4908;47.446;13.900;2024-03-29T00:51:12;92017.50;;;1.35;100.00
9738;BME280;4908;47.446;13.900;2024-03-29T00:53:38;92021.47;;;1.44;100.00
9738;BME280;4908;47.446;13.900;2024-03-29T00:56:04;92028.31;;;1.30;100.00
9738;BME280;4908;47.446;13.900;2024-03-29T00:58:30;92026.84;;;1.17;100.00
9738;BME280;4908;47.446;13.900;2024-03-29T01:00:56;92022.28;;;0.98;100.00
9738;BME280;4908;47.446;13.900;2024-03-29T01:03:22;92017.50;;;1.04;100.00
9738;BME280;4908;47.446;13.900;2024-03-29T01:05:48;92025.00;;;1.02;100.00
9738;BME280;4908;47.446;13.900;2024-03-29T01:08:15;92022.53;;;0.93;100.00
9738;BME280;4908;47.446;13.900;2024-03-29T01:10:41;92029.25;;;0.90;100.00
9738;BME280;4908;47.446;13.900;2024-03-29T01:13:07;92020.22;;;0.91;100.00
9738;BME280;4908;47.446;13.900;2024-03-29T01:15:33;92016.34;;;0.85;100.00
9738;BME280;4908;47.446;13.900;2024-03-29T01:17:59;92034.44;;;0.87;100.00
9738;BME280;4908;47.446;13.900;2024-03-29T01:20:25;92038.09;;;0.98;100.00
9738;BME280;4908;47.446;13.900;2024-03-29T01:22:51;92033.31;;;0.88;100.00
9738;BME280;4908;47.446;13.900;2024-03-29T01:25:18;92024.03;;;0.78;100.00
9738;BME280;4908;47.446;13.900;2024-03-29T01:27:44;92027.28;;;1.03;100.00
9738;BME280;4908;47.446;13.900;2024-03-29T01:30:11;92025.75;;;0.86;100.00
9738;BME280;4908;47.446;13.900;2024-03-29T01:32:37;92026.50;;;0.71;100.00
9738;BME280;4908;47.446;13.900;2024-03-29T01:35:03;92021.66;;;0.58;100.00
9738;BME280;4908;47.446;13.900;2024-03-29T01:37:30;92019.22;;;0.37;100.00
9738;BME280;4908;47.446;13.900;2024-03-29T01:39:56;92023.25;;;0.19;100.00
9738;BME280;4908;47.446;13.900;2024-03-29T01:42:23;92022.16;;;0.20;100.00
9738;BME280;4908;47.446;13.900;2024-03-29T01:44:49;92014.69;;;0.22;100.00
9738;BME280;4908;47.446;13.900;2024-03-29T01:47:17;92014.03;;;0.25;100.00
9738;BME280;4908;47.446;13.900;2024-03-29T01:49:45;92010.44;;;0.33;100.00
9738;BME280;4908;47.446;13.900;2024-03-29T01:52:12;92002.91;;;0.32;100.00
9738;BME280;4908;47.446;13.900;2024-03-29T01:54:41;92009.38;;;0.34;100.00
9738;BME280;4908;47.446;13.900;2024-03-29T01:57:08;92007.22;;;0.24;100.00
9738;BME280;4908;47.446;13.900;2024-03-29T01:59:37;92005.41;;;0.13;100.00
9738;BME280;4908;47.446;13.900;2024-03-29T02:02:05;92007.25;;;0.12;100.00
9738;BME280;4908;47.446;13.900;2024-03-29T02:04:32;92004.41;;;0.17;100.00
9738;BME280;4908;47.446;13.900;2024-03-29T02:07:00;91987.31;;;0.11;100.00
9738;BME280;4908;47.446;13.900;2024-03-29T02:09:27;91981.19;;;0.07;100.00
9738;BME280;4908;47.446;13.900;2024-03-29T02:11:54;91987.06;;;0.16;100.00
9738;BME280;4908;47.446;13.900;2024-03-29T02:14:21;91994.91;;;0.28;100.00
9738;BME280;4908;47.446;13.900;2024-03-29T02:16:50;91996.50;;;0.17;100.00
9738;BME280;4908;47.446;13.900;2024-03-29T02:19:17;91983.66;;;0.16;100.00
9738;BME280;4908;47.446;13.900;2024-03-29T02:21:48;91990.69;;;-0.04;100.00
9738;BME280;4908;47.446;13.900;2024-03-29T02:24:18;91994.56;;;0.02;100.00
9738;BME280;4908;47.446;13.900;2024-03-29T02:26:45;91979.66;;;0.06;100.00
9738;BME280;4908;47.446;13.900;2024-03-29T02:29:13;91970.66;;;0.07;100.00
9738;BME280;4908;47.446;13.900;2024-03-29T02:31:40;91966.44;;;0.18;100.00
9738;BME280;4908;47.446;13.900;2024-03-29T02:34:07;91948.97;;;0.26;100.00
9738;BME280;4908;47.446;13.900;2024-03-29T02:36:35;91947.28;;;0.33;100.00
9738;BME280;4908;47.446;13.900;2024-03-29T02:39:03;91945.19;;;0.39;100.00
9738;BME280;4908;47.446;13.900;2024-03-29T02:41:32;91931.50;;;0.64;100.00
9738;BME280;4908;47.446;13.900;2024-03-29T02:43:59;91922.41;;;0.62;100.00
9738;BME280;4908;47.446;13.900;2024-03-29T02:46:26;91915.03;;;0.67;100.00
9738;BME280;4908;47.446;13.900;2024-03-29T02:48:53;91922.84;;;0.79;100.00
9738;BME280;4908;47.446;13.900;2024-03-29T02:51:21;91928.09;;;0.95;100.00
9738;BME280;4908;47.446;13.900;2024-03-29T02:53:47;91933.16;;;1.04;100.00
9738;BME280;4908;47.446;13.900;2024-03-29T02:56:14;91926.66;;;0.82;100.00
9738;BME280;4908;47.446;13.900;2024-03-29T02:58:45;91922.50;;;0.81;100.00
9738;BME280;4908;47.446;13.900;2024-03-29T03:01:13;91922.16;;;0.82;100.00
9738;BME280;4908;47.446;13.900;2024-03-29T03:03:39;91917.88;;;0.93;100.00
9738;BME280;4908;47.446;13.900;2024-03-29T03:06:06;91906.69;;;0.81;100.00
9738;BME280;4908;47.446;13.900;2024-03-29T03:08:32;91891.38;;;0.86;100.00
9738;BME280;4908;47.446;13.900;2024-03-29T03:11:28;91910.56;;;1.03;100.00
9738;BME280;4908;47.446;13.900;2024-03-29T03:13:57;91923.47;;;1.08;100.00
9738;BME280;4908;47.446;13.900;2024-03-29T03:16:24;91935.31;;;0.98;100.00
9738;BME280;4908;47.446;13.900;2024-03-29T03:18:51;91923.84;;;0.90;100.00
9738;BME280;4908;47.446;13.900;2024-03-29T03:21:18;91938.88;;;0.90;100.00
9738;BME280;4908;47.446;13.900;2024-03-29T03:23:46;91935.16;;;0.91;100.00
9738;BME280;4908;47.446;13.900;2024-03-29T03:26:12;91927.66;;;0.93;100.00
9738;BME280;4908;47.446;13.900;2024-03-29T03:28:39;91928.53;;;0.66;100.00
9738;BME280;4908;47.446;13.900;2024-03-29T03:31:07;91913.59;;;0.70;100.00
9738;BME280;4908;47.446;13.900;2024-03-29T03:33:34;91902.44;;;0.76;100.00
9738;BME280;4908;47.446;13.900;2024-03-29T03:36:02;91923.75;;;1.03;100.00
9738;BME280;4908;47.446;13.900;2024-03-29T03:38:28;91939.28;;;1.08;100.00
9738;BME280;4908;47.446;13.900;2024-03-29T03:40:55;91951.53;;;1.00;100.00
9738;BME280;4908;47.446;13.900;2024-03-29T03:43:21;91932.03;;;0.85;100.00
9738;BME280;4908;47.446;13.900;2024-03-29T03:45:48;91929.78;;;0.87;100.00
9738;BME280;4908;47.446;13.900;2024-03-29T03:48:16;91948.50;;;0.82;100.00
9738;BME280;4908;47.446;13.900;2024-03-29T03:50:43;91941.94;;;0.76;100.00
9738;BME280;4908;47.446;13.900;2024-03-29T03:53:09;91933.97;;;0.73;100.00
9738;BME280;4908;47.446;13.900;2024-03-29T03:55:37;91933.88;;;0.69;100.00
9738;BME280;4908;47.446;13.900;2024-03-29T03:58:03;91936.09;;;0.67;100.00
9738;BME280;4908;47.446;13.900;2024-03-29T04:00:30;91932.84;;;0.58;100.00
9738;BME280;4908;47.446;13.900;2024-03-29T04:02:57;91948.50;;;0.67;100.00
9738;BME280;4908;47.446;13.900;2024-03-29T04:05:25;91958.03;;;0.71;100.00
9738;BME280;4908;47.446;13.900;2024-03-29T04:07:52;91958.03;;;0.71;100.00
9738;BME280;4908;47.446;13.900;2024-03-29T04:10:19;91961.75;;;0.70;100.00
9738;BME280;4908;47.446;13.900;2024-03-29T04:12:45;91962.94;;;0.57;100.00
9738;BME280;4908;47.446;13.900;2024-03-29T04:15:12;91971.09;;;0.52;100.00
9738;BME280;4908;47.446;13.900;2024-03-29T04:17:38;91966.00;;;0.59;100.00
9738;BME280;4908;47.446;13.900;2024-03-29T04:20:06;91967.53;;;0.76;100.00
9738;BME280;4908;47.446;13.900;2024-03-29T04:22:34;91964.31;;;0.82;100.00
9738;BME280;4908;47.446;13.900;2024-03-29T04:25:01;91972.19;;;0.98;100.00
9738;BME280;4908;47.446;13.900;2024-03-29T04:27:27;91974.34;;;0.93;100.00
9738;BME280;4908;47.446;13.900;2024-03-29T04:29:55;91968.56;;;1.03;100.00
9738;BME280;4908;47.446;13.900;2024-03-29T04:32:21;91975.53;;;1.11;100.00
9738;BME280;4908;47.446;13.900;2024-03-29T04:34:49;91977.88;;;1.16;100.00
9738;BME280;4908;47.446;13.900;2024-03-29T04:37:15;91968.28;;;1.08;100.00
9738;BME280;4908;47.446;13.900;2024-03-29T04:39:44;91967.25;;;1.12;100.00
9738;BME280;4908;47.446;13.900;2024-03-29T04:42:11;91967.84;;;1.06;100.00
9738;BME280;4908;47.446;13.900;2024-03-29T04:44:40;91954.44;;;1.11;100.00
9738;BME280;4908;47.446;13.900;2024-03-29T04:47:07;91953.91;;;0.89;100.00
9738;BME280;4908;47.446;13.900;2024-03-29T04:49:35;91951.47;;;0.97;100.00
9738;BME280;4908;47.446;13.900;2024-03-29T04:52:02;91951.38;;;0.93;100.00
9738;BME280;4908;47.446;13.900;2024-03-29T04:54:30;91942.22;;;0.87;100.00
9738;BME280;4908;47.446;13.900;2024-03-29T04:56:59;91947.03;;;1.01;100.00
9738;BME280;4908;47.446;13.900;2024-03-29T04:59:27;91947.34;;;1.15;100.00
9738;BME280;4908;47.446;13.900;2024-03-29T05:01:55;91940.13;;;1.12;100.00
9738;BME280;4908;47.446;13.900;2024-03-29T05:04:22;91930.19;;;1.05;100.00
9738;BME280;4908;47.446;13.900;2024-03-29T05:06:52;91939.72;;;1.10;100.00
9738;BME280;4908;47.446;13.900;2024-03-29T05:09:19;91939.72;;;0.94;100.00
9738;BME280;4908;47.446;13.900;2024-03-29T05:11:47;91948.41;;;0.95;100.00
9738;BME280;4908;47.446;13.900;2024-03-29T05:14:16;91945.94;;;1.02;100.00
9738;BME280;4908;47.446;13.900;2024-03-29T05:16:44;91948.91;;;1.00;100.00
9738;BME280;4908;47.446;13.900;2024-03-29T05:19:11;91961.59;;;0.95;100.00
9738;BME280;4908;47.446;13.900;2024-03-29T05:21:39;91963.09;;;0.96;100.00
9738;BME280;4908;47.446;13.900;2024-03-29T05:24:06;91965.16;;;0.86;100.00
9738;BME280;4908;47.446;13.900;2024-03-29T05:26:33;91965.91;;;1.03;100.00
9738;BME280;4908;47.446;13.900;2024-03-29T05:29:01;91970.25;;;0.95;100.00
9738;BME280;4908;47.446;13.900;2024-03-29T05:31:31;91967.19;;;1.09;100.00
9738;BME280;4908;47.446;13.900;2024-03-29T05:33:58;91961.13;;;1.24;100.00
9738;BME280;4908;47.446;13.900;2024-03-29T05:36:26;91975.94;;;1.28;100.00
9738;BME280;4908;47.446;13.900;2024-03-29T05:38:52;91975.47;;;1.42;100.00
9738;BME280;4908;47.446;13.900;2024-03-29T05:41:19;91971.25;;;1.56;100.00
9738;BME280;4908;47.446;13.900;2024-03-29T05:43:47;91975.75;;;1.56;100.00
9738;BME280;4908;47.446;13.900;2024-03-29T05:46:15;91974.50;;;1.50;100.00
9738;BME280;4908;47.446;13.900;2024-03-29T05:48:44;91979.19;;;1.41;100.00
9738;BME280;4908;47.446;13.900;2024-03-29T05:51:11;91979.19;;;1.41;100.00
9738;BME280;4908;47.446;13.900;2024-03-29T05:53:38;91986.97;;;1.34;100.00
9738;BME280;4908;47.446;13.900;2024-03-29T05:56:06;91987.22;;;1.29;100.00
9738;BME280;4908;47.446;13.900;2024-03-29T05:58:33;91978.22;;;1.30;100.00
9738;BME280;4908;47.446;13.900;2024-03-29T06:01:00;91974.13;;;1.17;100.00
9738;BME280;4908;47.446;13.900;2024-03-29T06:03:27;91968.63;;;1.22;100.00
9738;BME280;4908;47.446;13.900;2024-03-29T06:05:56;91966.13;;;1.29;100.00
9738;BME280;4908;47.446;13.900;2024-03-29T06:08:23;91965.75;;;1.46;100.00
9738;BME280;4908;47.446;13.900;2024-03-29T06:10:52;91974.69;;;1.41;100.00
9738;BME280;4908;47.446;13.900;2024-03-29T06:13:19;91976.75;;;1.32;100.00
9738;BME280;4908;47.446;13.900;2024-03-29T06:16:14;91977.47;;;1.48;100.00
9738;BME280;4908;47.446;13.900;2024-03-29T06:18:58;91979.19;;;1.41;100.00
9738;BME280;4908;47.446;13.900;2024-03-29T06:21:27;91975.53;;;1.45;100.00
9738;BME280;4908;47.446;13.900;2024-03-29T06:23:54;91976.28;;;1.46;100.00
9738;BME280;4908;47.446;13.900;2024-03-29T06:26:21;91974.63;;;1.38;100.00
9738;BME280;4908;47.446;13.900;2024-03-29T06:28:48;91967.69;;;1.49;100.00
9738;BME280;4908;47.446;13.900;2024-03-29T06:31:15;91976.59;;;1.60;100.00
9738;BME280;4908;47.446;13.900;2024-03-29T06:33:42;91991.78;;;1.47;100.00
9738;BME280;4908;47.446;13.900;2024-03-29T06:36:09;91999.78;;;1.51;100.00
9738;BME280;4908;47.446;13.900;2024-03-29T06:38:37;92000.75;;;1.62;100.00
9738;BME280;4908;47.446;13.900;2024-03-29T06:41:04;92003.38;;;1.77;100.00
9738;BME280;4908;47.446;13.900;2024-03-29T06:43:31;92000.66;;;1.93;100.00
9738;BME280;4908;47.446;13.900;2024-03-29T06:45:58;92007.50;;;1.94;100.00
9738;BME280;4908;47.446;13.900;2024-03-29T06:48:28;92012.59;;;1.87;100.00
9738;BME280;4908;47.446;13.900;2024-03-29T06:50:56;92011.94;;;1.90;100.00
9738;BME280;4908;47.446;13.900;2024-03-29T06:53:23;91998.63;;;1.87;100.00
9738;BME280;4908;47.446;13.900;2024-03-29T06:55:54;91994.72;;;1.96;100.00
9738;BME280;4908;47.446;13.900;2024-03-29T06:58:21;91998.75;;;2.09;100.00
9738;BME280;4908;47.446;13.900;2024-03-29T07:00:48;92001.94;;;2.18;100.00
9738;BME280;4908;47.446;13.900;2024-03-29T07:03:16;92010.25;;;2.39;100.00
9738;BME280;4908;47.446;13.900;2024-03-29T07:05:44;92025.84;;;2.44;100.00
9738;BME280;4908;47.446;13.900;2024-03-29T07:08:11;92024.19;;;2.36;100.00
9738;BME280;4908;47.446;13.900;2024-03-29T07:10:38;92024.31;;;2.43;100.00
9738;BME280;4908;47.446;13.900;2024-03-29T07:13:07;92011.94;;;2.47;100.00
9738;BME280;4908;47.446;13.900;2024-03-29T07:15:35;92015.53;;;2.58;100.00
9738;BME280;4908;47.446;13.900;2024-03-29T07:18:02;92019.81;;;2.66;100.00
9738;BME280;4908;47.446;13.900;2024-03-29T07:20:29;92014.97;;;2.68;100.00
9738;BME280;4908;47.446;13.900;2024-03-29T07:22:57;91999.94;;;2.72;100.00
9738;BME280;4908;47.446;13.900;2024-03-29T07:25:24;91998.53;;;2.79;100.00
9738;BME280;4908;47.446;13.900;2024-03-29T07:27:51;92008.00;;;2.80;100.00
9738;BME280;4908;47.446;13.900;2024-03-29T07:30:20;92011.44;;;2.61;100.00
9738;BME280;4908;47.446;13.900;2024-03-29T07:32:47;92012.63;;;2.63;100.00
9738;BME280;4908;47.446;13.900;2024-03-29T07:35:14;92016.19;;;2.74;100.00
9738;BME280;4908;47.446;13.900;2024-03-29T07:37:44;92011.47;;;2.84;100.00
9738;BME280;4908;47.446;13.900;2024-03-29T07:40:13;92015.47;;;2.97;100.00
9738;BME280;4908;47.446;13.900;2024-03-29T07:42:40;92025.00;;;2.82;100.00
9738;BME280;4908;47.446;13.900;2024-03-29T07:45:08;92022.28;;;2.98;100.00
9738;BME280;4908;47.446;13.900;2024-03-29T07:47:36;92030.88;;;2.91;100.00
9738;BME280;4908;47.446;13.900;2024-03-29T07:50:04;92032.16;;;3.01;100.00
9738;BME280;4908;47.446;13.900;2024-03-29T07:52:31;92023.22;;;3.09;100.00
9738;BME280;4908;47.446;13.900;2024-03-29T07:54:58;92017.75;;;2.98;100.00
9738;BME280;4908;47.446;13.900;2024-03-29T07:57:26;92016.28;;;3.01;100.00
9738;BME280;4908;47.446;13.900;2024-03-29T07:59:53;92016.75;;;3.06;100.00
9738;BME280;4908;47.446;13.900;2024-03-29T08:02:20;92007.66;;;3.04;100.00
9738;BME280;4908;47.446;13.900;2024-03-29T08:04:52;91997.06;;;3.04;100.00
9738;BME280;4908;47.446;13.900;2024-03-29T08:07:19;92001.47;;;3.19;100.00
9738;BME280;4908;47.446;13.900;2024-03-29T08:09:46;92004.16;;;3.45;100.00
9738;BME280;4908;47.446;13.900;2024-03-29T08:12:13;91995.47;;;3.71;100.00
9738;BME280;4908;47.446;13.900;2024-03-29T08:14:40;91997.41;;;3.77;100.00
9738;BME280;4908;47.446;13.900;2024-03-29T08:17:08;91997.97;;;3.90;100.00
9738;BME280;4908;47.446;13.900;2024-03-29T08:19:35;91990.63;;;4.06;100.00
9738;BME280;4908;47.446;13.900;2024-03-29T08:22:04;91990.22;;;4.04;100.00
9738;BME280;4908;47.446;13.900;2024-03-29T08:24:31;91979.34;;;4.12;100.00
9738;BME280;4908;47.446;13.900;2024-03-29T08:26:58;91985.00;;;4.40;100.00
9738;BME280;4908;47.446;13.900;2024-03-29T08:29:27;91988.94;;;4.57;100.00
9738;BME280;4908;47.446;13.900;2024-03-29T08:31:54;92002.69;;;4.66;100.00
9738;BME280;4908;47.446;13.900;2024-03-29T08:34:22;91984.25;;;4.77;100.00
9738;BME280;4908;47.446;13.900;2024-03-29T08:36:49;91997.66;;;4.91;100.00
9738;BME280;4908;47.446;13.900;2024-03-29T08:39:17;91996.63;;;5.02;100.00
9738;BME280;4908;47.446;13.900;2024-03-29T08:41:44;91989.59;;;5.24;100.00
9738;BME280;4908;47.446;13.900;2024-03-29T08:44:11;91985.25;;;5.49;100.00
9738;BME280;4908;47.446;13.900;2024-03-29T08:46:38;91982.72;;;5.63;100.00
9738;BME280;4908;47.446;13.900;2024-03-29T08:49:05;91990.72;;;5.70;100.00
9738;BME280;4908;47.446;13.900;2024-03-29T08:51:32;91992.47;;;6.06;100.00
9738;BME280;4908;47.446;13.900;2024-03-29T08:53:59;91969.81;;;6.30;100.00
9738;BME280;4908;47.446;13.900;2024-03-29T08:56:31;91982.84;;;6.67;100.00
9738;BME280;4908;47.446;13.900;2024-03-29T08:59:00;91975.69;;;6.88;100.00
9738;BME280;4908;47.446;13.900;2024-03-29T09:01:32;91970.44;;;7.13;100.00
9738;BME280;4908;47.446;13.900;2024-03-29T09:03:59;91959.03;;;7.30;100.00
9738;BME280;4908;47.446;13.900;2024-03-29T09:06:26;91951.78;;;7.66;100.00
9738;BME280;4908;47.446;13.900;2024-03-29T09:08:53;91955.56;;;7.89;100.00
9738;BME280;4908;47.446;13.900;2024-03-29T09:11:20;91944.03;;;8.24;100.00
9738;BME280;4908;47.446;13.900;2024-03-29T09:13:49;91952.31;;;8.58;100.00
9738;BME280;4908;47.446;13.900;2024-03-29T09:16:16;91940.72;;;8.92;100.00
9738;BME280;4908;47.446;13.900;2024-03-29T09:18:43;91947.09;;;9.09;100.00
9738;BME280;4908;47.446;13.900;2024-03-29T09:21:10;91942.03;;;9.25;100.00
9738;BME280;4908;47.446;13.900;2024-03-29T09:23:37;91942.56;;;9.57;100.00
9738;BME280;4908;47.446;13.900;2024-03-29T09:26:07;91938.72;;;9.58;100.00
9738;BME280;4908;47.446;13.900;2024-03-29T09:28:34;91934.16;;;9.55;100.00
9738;BME280;4908;47.446;13.900;2024-03-29T09:31:04;91934.75;;;9.73;100.00
9738;BME280;4908;47.446;13.900;2024-03-29T09:33:31;91920.13;;;9.88;100.00
9738;BME280;4908;47.446;13.900;2024-03-29T09:35:58;91909.63;;;10.05;100.00
9738;BME280;4908;47.446;13.900;2024-03-29T09:38:25;91908.81;;;10.11;100.00
9738;BME280;4908;47.446;13.900;2024-03-29T09:40:58;91906.88;;;10.15;100.00
9738;BME280;4908;47.446;13.900;2024-03-29T09:43:28;91898.38;;;10.24;100.00
9738;BME280;4908;47.446;13.900;2024-03-29T09:45:55;91898.81;;;10.19;100.00
9738;BME280;4908;47.446;13.900;2024-03-29T09:48:25;91893.25;;;10.36;100.00
9738;BME280;4908;47.446;13.900;2024-03-29T09:50:56;91887.03;;;10.13;100.00
9738;BME280;4908;47.446;13.900;2024-03-29T09:53:24;91903.06;;;10.13;100.00
9738;BME280;4908;47.446;13.900;2024-03-29T09:55:51;91900.19;;;9.97;100.00
9738;BME280;4908;47.446;13.900;2024-03-29T09:58:19;91890.63;;;10.33;100.00
9738;BME280;4908;47.446;13.900;2024-03-29T10:00:46;91882.50;;;10.70;100.00
9738;BME280;4908;47.446;13.900;2024-03-29T10:03:13;91876.75;;;10.98;100.00
9738;BME280;4908;47.446;13.900;2024-03-29T10:05:46;91887.84;;;11.23;100.00
9738;BME280;4908;47.446;13.900;2024-03-29T10:08:13;91884.59;;;11.12;100.00
9738;BME280;4908;47.446;13.900;2024-03-29T10:10:41;91876.31;;;11.03;100.00
9738;BME280;4908;47.446;13.900;2024-03-29T10:13:09;91872.28;;;10.88;100.00
9738;BME280;4908;47.446;13.900;2024-03-29T10:15:36;91863.41;;;10.95;100.00
9738;BME280;4908;47.446;13.900;2024-03-29T10:18:05;91863.13;;;10.89;100.00
9738;BME280;4908;47.446;13.900;2024-03-29T10:20:32;91854.53;;;11.01;100.00
9738;BME280;4908;47.446;13.900;2024-03-29T10:23:02;91854.31;;;11.15;100.00
9738;BME280;4908;47.446;13.900;2024-03-29T10:25:32;91853.97;;;11.13;100.00
9738;BME280;4908;47.446;13.900;2024-03-29T10:27:59;91855.81;;;11.16;100.00
9738;BME280;4908;47.446;13.900;2024-03-29T10:30:27;91860.19;;;11.30;100.00
9738;BME280;4908;47.446;13.900;2024-03-29T10:32:55;91851.50;;;11.45;100.00
9738;BME280;4908;47.446;13.900;2024-03-29T10:35:22;91854.41;;;11.54;100.00
9738;BME280;4908;47.446;13.900;2024-03-29T10:37:52;91855.47;;;11.84;100.00
9738;BME280;4908;47.446;13.900;2024-03-29T10:40:22;91844.34;;;11.85;100.00
9738;BME280;4908;47.446;13.900;2024-03-29T10:42:52;91835.22;;;12.02;100.00
9738;BME280;4908;47.446;13.900;2024-03-29T10:45:21;91831.00;;;12.21;100.00
9738;BME280;4908;47.446;13.900;2024-03-29T10:47:49;91838.09;;;12.31;100.00
9738;BME280;4908;47.446;13.900;2024-03-29T10:50:19;91832.91;;;12.40;100.00
9738;BME280;4908;47.446;13.900;2024-03-29T10:52:48;91833.00;;;12.36;100.00
9738;BME280;4908;47.446;13.900;2024-03-29T10:55:15;91829.69;;;12.48;100.00
9738;BME280;4908;47.446;13.900;2024-03-29T10:57:46;91837.84;;;12.61;100.00
9738;BME280;4908;47.446;13.900;2024-03-29T11:00:17;91828.13;;;12.67;100.00
9738;BME280;4908;47.446;13.900;2024-03-29T11:02:49;91826.88;;;12.72;100.00
9738;BME280;4908;47.446;13.900;2024-03-29T11:05:17;91831.97;;;12.30;100.00
9738;BME280;4908;47.446;13.900;2024-03-29T11:07:45;91836.09;;;12.35;100.00
9738;BME280;4908;47.446;13.900;2024-03-29T11:10:15;91821.56;;;12.32;100.00
9738;BME280;4908;47.446;13.900;2024-03-29T11:12:59;91817.84;;;12.46;100.00
9738;BME280;4908;47.446;13.900;2024-03-29T11:15:30;91817.41;;;12.47;100.00
9738;BME280;4908;47.446;13.900;2024-03-29T11:17:58;91830.31;;;12.17;100.00
9738;BME280;4908;47.446;13.900;2024-03-29T11:20:26;91828.94;;;11.69;100.00
9738;BME280;4908;47.446;13.900;2024-03-29T11:23:04;91818.53;;;11.91;100.00
9738;BME280;4908;47.446;13.900;2024-03-29T11:25:41;91817.03;;;11.90;100.00
9738;BME280;4908;47.446;13.900;2024-03-29T11:28:11;91809.41;;;12.28;100.00
9738;BME280;4908;47.446;13.900;2024-03-29T11:30:42;91800.84;;;12.33;100.00
9738;BME280;4908;47.446;13.900;2024-03-29T11:33:28;91799.63;;;12.18;100.00
9738;BME280;4908;47.446;13.900;2024-03-29T11:35:55;91795.38;;;12.01;100.00
9738;BME280;4908;47.446;13.900;2024-03-29T11:38:30;91781.19;;;12.20;100.00
9738;BME280;4908;47.446;13.900;2024-03-29T11:41:05;91775.06;;;12.55;100.00
9738;BME280;4908;47.446;13.900;2024-03-29T11:43:35;91772.84;;;12.86;100.00
9738;BME280;4908;47.446;13.900;2024-03-29T11:46:05;91765.34;;;12.77;100.00
9738;BME280;4908;47.446;13.900;2024-03-29T11:48:32;91754.47;;;12.84;100.00
9738;BME280;4908;47.446;13.900;2024-03-29T11:51:00;91759.50;;;13.30;100.00
9738;BME280;4908;47.446;13.900;2024-03-29T11:53:29;91751.91;;;13.58;100.00
9738;BME280;4908;47.446;13.900;2024-03-29T11:55:56;91758.69;;;13.62;100.00
9738;BME280;4908;47.446;13.900;2024-03-29T11:58:25;91754.94;;;13.43;100.00
9738;BME280;4908;47.446;13.900;2024-03-29T12:00:54;91759.19;;;13.12;100.00
9738;BME280;4908;47.446;13.900;2024-03-29T12:03:24;91748.38;;;13.44;100.00
9738;BME280;4908;47.446;13.900;2024-03-29T12:05:52;91740.94;;;13.65;100.00
9738;BME280;4908;47.446;13.900;2024-03-29T12:08:21;91749.81;;;13.78;100.00
9738;BME280;4908;47.446;13.900;2024-03-29T12:10:49;91740.66;;;13.75;100.00
9738;BME280;4908;47.446;13.900;2024-03-29T12:13:17;91741.13;;;13.86;100.00
9738;BME280;4908;47.446;13.900;2024-03-29T12:15:44;91749.09;;;13.90;100.00
9738;BME280;4908;47.446;13.900;2024-03-29T12:18:13;91740.19;;;13.93;98.39
9738;BME280;4908;47.446;13.900;2024-03-29T12:20:42;91734.38;;;14.07;95.70
9738;BME280;4908;47.446;13.900;2024-03-29T12:23:13;91744.44;;;14.19;97.71
9738;BME280;4908;47.446;13.900;2024-03-29T12:25:40;91739.13;;;14.31;94.28
9738;BME280;4908;47.446;13.900;2024-03-29T12:28:08;91743.97;;;14.49;84.37
9738;BME280;4908;47.446;13.900;2024-03-29T12:30:37;91750.03;;;14.66;88.19
9738;BME280;4908;47.446;13.900;2024-03-29T12:33:05;91746.56;;;14.90;88.43
9738;BME280;4908;47.446;13.900;2024-03-29T12:35:34;91761.66;;;15.13;84.45
9738;BME280;4908;47.446;13.900;2024-03-29T12:38:03;91747.59;;;15.18;72.37
9738;BME280;4908;47.446;13.900;2024-03-29T12:40:31;91750.06;;;15.50;76.96
9738;BME280;4908;47.446;13.900;2024-03-29T12:43:03;91754.22;;;15.64;76.84
9738;BME280;4908;47.446;13.900;2024-03-29T12:45:30;91743.91;;;15.50;77.26
9738;BME280;4908;47.446;13.900;2024-03-29T12:47:58;91741.69;;;15.70;80.08
9738;BME280;4908;47.446;13.900;2024-03-29T12:50:26;91743.97;;;15.93;66.33
9738;BME280;4908;47.446;13.900;2024-03-29T12:52:56;91741.59;;;15.95;64.86
9738;BME280;4908;47.446;13.900;2024-03-29T12:55:23;91749.59;;;15.86;61.94
9738;BME280;4908;47.446;13.900;2024-03-29T12:57:54;91734.38;;;16.44;60.88
9738;BME280;4908;47.446;13.900;2024-03-29T13:00:21;91746.19;;;16.90;60.02
9738;BME280;4908;47.446;13.900;2024-03-29T13:02:48;91732.53;;;16.93;54.08
9738;BME280;4908;47.446;13.900;2024-03-29T13:05:15;91737.84;;;16.66;61.64
9738;BME280;4908;47.446;13.900;2024-03-29T13:07:42;91726.59;;;17.26;68.89
9738;BME280;4908;47.446;13.900;2024-03-29T13:10:11;91728.91;;;16.87;81.09
9738;BME280;4908;47.446;13.900;2024-03-29T13:12:40;91729.91;;;17.21;79.84